sensor_id;sensor_type;location;lat;lon;timestamp;P1;durP1;ratioP1;P2;durP2;ratioP2
4961;SDS011;2496;52.468;13.342;2024-03-23T00:54:31;14.40;;;3.50;;
4961;SDS011;2496;52.468;13.342;2024-03-23T00:56:57;16.90;;;3.73;;
4961;SDS011;2496;52.468;13.342;2024-03-23T00:59:24;18.50;;;4.40;;
4961;SDS011;2496;52.468;13.342;2024-03-23T01:01:52;14.57;;;3.70;;
4961;SDS011;2496;52.468;13.342;2024-03-23T01:04:19;13.27;;;4.00;;
4961;SDS011;2496;52.468;13.342;2024-03-23T01:06:45;12.63;;;3.60;;
4961;SDS011;2496;52.468;13.342;2024-03-23T01:09:12;27.07;;;3.80;;
4961;SDS011;2496;52.468;13.342;2024-03-23T01:11:40;15.77;;;3.70;;
4961;SDS011;2496;52.468;13.342;2024-03-23T01:14:07;23.23;;;4.50;;
4961;SDS011;2496;52.468;13.342;2024-03-23T01:16:33;13.97;;;4.20;;
4961;SDS011;2496;52.468;13.342;2024-03-23T01:18:59;23.70;;;3.93;;
4961;SDS011;2496;52.468;13.342;2024-03-23T01:21:25;14.80;;;3.67;;
4961;SDS011;2496;52.468;13.342;2024-03-23T01:23:52;14.90;;;3.43;;
4961;SDS011;2496;52.468;13.342;2024-03-23T01:26:18;21.90;;;4.33;;
4961;SDS011;2496;52.468;13.342;2024-03-23T01:28:46;9.93;;;3.10;;
4961;SDS011;2496;52.468;13.342;2024-03-23T01:31:12;13.17;;;4.07;;
4961;SDS011;2496;52.468;13.342;2024-03-23T01:33:41;21.77;;;4.20;;
4961;SDS011;2496;52.468;13.342;2024-03-23T01:36:07;11.90;;;3.50;;
4961;SDS011;2496;52.468;13.342;2024-03-23T01:38:33;11.90;;;3.50;;
4961;SDS011;2496;52.468;13.342;2024-03-23T01:40:59;17.10;;;3.83;;
4961;SDS011;2496;52.468;13.342;2024-03-23T01:43:26;19.93;;;4.00;;
4961;SDS011;2496;52.468;13.342;2024-03-23T01:45:54;18.53;;;5.67;;
4961;SDS011;2496;52.468;13.342;2024-03-23T01:48:21;14.33;;;3.83;;
4961;SDS011;2496;52.468;13.342;2024-03-23T01:50:47;16.27;;;4.97;;
4961;SDS011;2496;52.468;13.342;2024-03-23T01:53:14;16.30;;;4.20;;
4961;SDS011;2496;52.468;13.342;2024-03-23T01:55:42;18.77;;;4.40;;
4961;SDS011;2496;52.468;13.342;2024-03-23T01:58:09;15.43;;;4.60;;
4961;SDS011;2496;52.468;13.342;2024-03-23T02:00:35;20.47;;;4.20;;
4961;SDS011;2496;52.468;13.342;2024-03-23T02:03:11;15.20;;;3.40;;
4961;SDS011;2496;52.468;13.342;2024-03-23T02:05:48;20.37;;;4.83;;
4961;SDS011;2496;52.468;13.342;2024-03-23T02:08:15;20.23;;;4.50;;
4961;SDS011;2496;52.468;13.342;2024-03-23T02:10:42;17.70;;;4.13;;
4961;SDS011;2496;52.468;13.342;2024-03-23T02:13:09;26.33;;;4.40;;
4961;SDS011;2496;52.468;13.342;2024-03-23T02:15:35;18.93;;;4.77;;
4961;SDS011;2496;52.468;13.342;2024-03-23T02:18:04;17.13;;;4.10;;
4961;SDS011;2496;52.468;13.342;2024-03-23T02:20:30;21.40;;;4.23;;
4961;SDS011;2496;52.468;13.342;2024-03-23T02:22:58;16.57;;;4.70;;
4961;SDS011;2496;52.468;13.342;2024-03-23T02:25:24;16.17;;;5.03;;
4961;SDS011;2496;52.468;13.342;2024-03-23T02:27:51;14.60;;;3.80;;
4961;SDS011;2496;52.468;13.342;2024-03-23T02:30:19;20.33;;;5.47;;
4961;SDS011;2496;52.468;13.342;2024-03-23T02:32:46;15.10;;;3.90;;
4961;SDS011;2496;52.468;13.342;2024-03-23T02:35:12;20.10;;;5.40;;
4961;SDS011;2496;52.468;13.342;2024-03-23T02:37:39;17.50;;;4.20;;
4961;SDS011;2496;52.468;13.342;2024-03-23T02:40:07;15.93;;;3.67;;
4961;SDS011;2496;52.468;13.342;2024-03-23T02:42:34;16.80;;;3.40;;
4961;SDS011;2496;52.468;13.342;2024-03-23T02:45:00;22.63;;;4.30;;
4961;SDS011;2496;52.468;13.342;2024-03-23T02:47:29;17.33;;;4.37;;
4961;SDS011;2496;52.468;13.342;2024-03-23T02:49:55;22.77;;;4.00;;
4961;SDS011;2496;52.468;13.342;2024-03-23T02:52:22;18.93;;;4.17;;
4961;SDS011;2496;52.468;13.342;2024-03-23T02:54:48;16.33;;;3.60;;
4961;SDS011;2496;52.468;13.342;2024-03-23T02:57:17;16.07;;;3.30;;
4961;SDS011;2496;52.468;13.342;2024-03-23T02:59:42;18.90;;;4.13;;
4961;SDS011;2496;52.468;13.342;2024-03-23T03:02:10;18.57;;;4.37;;
4961;SDS011;2496;52.468;13.342;2024-03-23T03:04:36;17.83;;;3.60;;
4961;SDS011;2496;52.468;13.342;2024-03-23T03:07:03;13.70;;;3.90;;
4961;SDS011;2496;52.468;13.342;2024-03-23T03:09:29;19.13;;;3.90;;
4961;SDS011;2496;52.468;13.342;2024-03-23T03:11:56;19.90;;;3.80;;
4961;SDS011;2496;52.468;13.342;2024-03-23T03:14:24;19.63;;;3.80;;
4961;SDS011;2496;52.468;13.342;2024-03-23T03:16:51;11.20;;;3.50;;
4961;SDS011;2496;52.468;13.342;2024-03-23T03:19:17;22.20;;;4.60;;
4961;SDS011;2496;52.468;13.342;2024-03-23T03:21:43;9.27;;;3.60;;
4961;SDS011;2496;52.468;13.342;2024-03-23T03:24:09;17.47;;;3.90;;
4961;SDS011;2496;52.468;13.342;2024-03-23T03:26:36;11.23;;;3.10;;
4961;SDS011;2496;52.468;13.342;2024-03-23T03:29:02;18.77;;;4.13;;
4961;SDS011;2496;52.468;13.342;2024-03-23T03:31:31;15.63;;;4.10;;
4961;SDS011;2496;52.468;13.342;2024-03-23T03:33:57;11.83;;;3.97;;
4961;SDS011;2496;52.468;13.342;2024-03-23T03:36:24;12.43;;;3.60;;
4961;SDS011;2496;52.468;13.342;2024-03-23T03:38:49;12.57;;;4.00;;
4961;SDS011;2496;52.468;13.342;2024-03-23T03:41:17;13.97;;;3.83;;
4961;SDS011;2496;52.468;13.342;2024-03-23T03:43:43;16.43;;;4.20;;
4961;SDS011;2496;52.468;13.342;2024-03-23T03:46:10;14.47;;;4.13;;
4961;SDS011;2496;52.468;13.342;2024-03-23T03:48:37;13.10;;;3.93;;
4961;SDS011;2496;52.468;13.342;2024-03-23T03:51:04;14.80;;;3.20;;
4961;SDS011;2496;52.468;13.342;2024-03-23T03:53:30;12.10;;;3.30;;
4961;SDS011;2496;52.468;13.342;2024-03-23T03:56:00;14.90;;;4.17;;
4961;SDS011;2496;52.468;13.342;2024-03-23T03:58:27;23.30;;;4.97;;
4961;SDS011;2496;52.468;13.342;2024-03-23T04:00:53;18.23;;;3.97;;
4961;SDS011;2496;52.468;13.342;2024-03-23T04:03:20;13.90;;;4.20;;
4961;SDS011;2496;52.468;13.342;2024-03-23T04:05:51;13.00;;;4.13;;
4961;SDS011;2496;52.468;13.342;2024-03-23T04:08:17;20.33;;;4.77;;
4961;SDS011;2496;52.468;13.342;2024-03-23T04:10:44;16.70;;;4.80;;
4961;SDS011;2496;52.468;13.342;2024-03-23T04:13:10;17.47;;;3.50;;
4961;SDS011;2496;52.468;13.342;2024-03-23T04:15:37;9.77;;;3.53;;
4961;SDS011;2496;52.468;13.342;2024-03-23T04:18:03;15.27;;;3.50;;
4961;SDS011;2496;52.468;13.342;2024-03-23T04:20:31;15.13;;;3.57;;
4961;SDS011;2496;52.468;13.342;2024-03-23T04:22:58;14.60;;;3.07;;
4961;SDS011;2496;52.468;13.342;2024-03-23T04:25:25;10.47;;;3.50;;
4961;SDS011;2496;52.468;13.342;2024-03-23T04:27:51;15.47;;;3.70;;
4961;SDS011;2496;52.468;13.342;2024-03-23T04:30:18;16.10;;;3.93;;
4961;SDS011;2496;52.468;13.342;2024-03-23T04:32:44;14.63;;;3.33;;
4961;SDS011;2496;52.468;13.342;2024-03-23T04:35:12;13.93;;;4.50;;
4961;SDS011;2496;52.468;13.342;2024-03-23T04:37:39;11.17;;;3.27;;
4961;SDS011;2496;52.468;13.342;2024-03-23T04:40:08;13.80;;;4.37;;
4961;SDS011;2496;52.468;13.342;2024-03-23T04:42:36;12.10;;;3.23;;
4961;SDS011;2496;52.468;13.342;2024-03-23T04:45:03;8.27;;;3.03;;
4961;SDS011;2496;52.468;13.342;2024-03-23T04:47:31;8.97;;;2.70;;
4961;SDS011;2496;52.468;13.342;2024-03-23T04:50:00;16.30;;;4.30;;
4961;SDS011;2496;52.468;13.342;2024-03-23T04:52:28;18.73;;;4.30;;
4961;SDS011;2496;52.468;13.342;2024-03-23T04:54:55;11.67;;;3.97;;
4961;SDS011;2496;52.468;13.342;2024-03-23T04:57:24;13.73;;;3.83;;
4961;SDS011;2496;52.468;13.342;2024-03-23T04:59:51;17.33;;;3.90;;
4961;SDS011;2496;52.468;13.342;2024-03-23T05:02:17;11.20;;;3.70;;
4961;SDS011;2496;52.468;13.342;2024-03-23T05:04:43;6.63;;;2.90;;
4961;SDS011;2496;52.468;13.342;2024-03-23T05:07:09;8.70;;;3.57;;
4961;SDS011;2496;52.468;13.342;2024-03-23T05:09:36;14.87;;;4.00;;
4961;SDS011;2496;52.468;13.342;2024-03-23T05:12:02;12.13;;;2.90;;
4961;SDS011;2496;52.468;13.342;2024-03-23T05:14:31;18.30;;;2.60;;
4961;SDS011;2496;52.468;13.342;2024-03-23T05:16:57;12.83;;;3.17;;
4961;SDS011;2496;52.468;13.342;2024-03-23T05:19:24;8.07;;;2.63;;
4961;SDS011;2496;52.468;13.342;2024-03-23T05:21:50;14.80;;;3.87;;
4961;SDS011;2496;52.468;13.342;2024-03-23T05:24:18;9.27;;;3.70;;
4961;SDS011;2496;52.468;13.342;2024-03-23T05:26:44;7.70;;;3.70;;
4961;SDS011;2496;52.468;13.342;2024-03-23T05:29:11;7.83;;;3.07;;
4961;SDS011;2496;52.468;13.342;2024-03-23T05:31:40;7.10;;;2.50;;
4961;SDS011;2496;52.468;13.342;2024-03-23T05:34:08;7.60;;;3.17;;
4961;SDS011;2496;52.468;13.342;2024-03-23T05:36:34;23.00;;;3.40;;
4961;SDS011;2496;52.468;13.342;2024-03-23T05:39:01;13.03;;;2.90;;
4961;SDS011;2496;52.468;13.342;2024-03-23T05:41:27;18.27;;;2.87;;
4961;SDS011;2496;52.468;13.342;2024-03-23T05:43:54;5.30;;;2.83;;
4961;SDS011;2496;52.468;13.342;2024-03-23T05:46:20;12.17;;;3.20;;
4961;SDS011;2496;52.468;13.342;2024-03-23T05:48:48;9.67;;;2.80;;
4961;SDS011;2496;52.468;13.342;2024-03-23T05:51:15;10.80;;;2.97;;
4961;SDS011;2496;52.468;13.342;2024-03-23T05:53:42;9.00;;;2.80;;
4961;SDS011;2496;52.468;13.342;2024-03-23T05:56:08;10.10;;;4.07;;
4961;SDS011;2496;52.468;13.342;2024-03-23T05:58:35;10.20;;;3.67;;
4961;SDS011;2496;52.468;13.342;2024-03-23T06:01:01;15.20;;;3.20;;
4961;SDS011;2496;52.468;13.342;2024-03-23T06:03:29;11.37;;;3.17;;
4961;SDS011;2496;52.468;13.342;2024-03-23T06:05:57;10.80;;;3.00;;
4961;SDS011;2496;52.468;13.342;2024-03-23T06:08:23;6.50;;;3.50;;
4961;SDS011;2496;52.468;13.342;2024-03-23T06:10:49;8.60;;;3.43;;
4961;SDS011;2496;52.468;13.342;2024-03-23T06:13:16;12.53;;;4.07;;
4961;SDS011;2496;52.468;13.342;2024-03-23T06:15:43;7.97;;;3.63;;
4961;SDS011;2496;52.468;13.342;2024-03-23T06:18:11;13.63;;;4.27;;
4961;SDS011;2496;52.468;13.342;2024-03-23T06:20:37;7.03;;;3.40;;
4961;SDS011;2496;52.468;13.342;2024-03-23T06:23:05;9.73;;;2.70;;
4961;SDS011;2496;52.468;13.342;2024-03-23T06:25:31;15.90;;;3.00;;
4961;SDS011;2496;52.468;13.342;2024-03-23T06:27:58;9.80;;;3.13;;
4961;SDS011;2496;52.468;13.342;2024-03-23T06:32:53;11.30;;;2.90;;
4961;SDS011;2496;52.468;13.342;2024-03-23T06:35:20;13.83;;;3.20;;
4961;SDS011;2496;52.468;13.342;2024-03-23T06:37:46;12.23;;;3.47;;
4961;SDS011;2496;52.468;13.342;2024-03-23T06:40:14;8.57;;;2.67;;
4961;SDS011;2496;52.468;13.342;2024-03-23T06:42:40;6.27;;;2.53;;
4961;SDS011;2496;52.468;13.342;2024-03-23T06:45:07;11.87;;;2.80;;
4961;SDS011;2496;52.468;13.342;2024-03-23T06:47:36;6.60;;;2.43;;
4961;SDS011;2496;52.468;13.342;2024-03-23T06:50:04;9.80;;;4.47;;
4961;SDS011;2496;52.468;13.342;2024-03-23T06:52:30;7.70;;;3.07;;
4961;SDS011;2496;52.468;13.342;2024-03-23T06:54:57;11.93;;;2.70;;
4961;SDS011;2496;52.468;13.342;2024-03-23T06:57:25;13.93;;;2.67;;
4961;SDS011;2496;52.468;13.342;2024-03-23T06:59:51;11.43;;;3.47;;
4961;SDS011;2496;52.468;13.342;2024-03-23T07:02:17;15.67;;;4.17;;
4961;SDS011;2496;52.468;13.342;2024-03-23T07:04:44;13.13;;;3.53;;
4961;SDS011;2496;52.468;13.342;2024-03-23T07:07:10;6.00;;;2.60;;
4961;SDS011;2496;52.468;13.342;2024-03-23T07:09:38;14.03;;;2.60;;
4961;SDS011;2496;52.468;13.342;2024-03-23T07:12:04;7.43;;;2.33;;
4961;SDS011;2496;52.468;13.342;2024-03-23T07:14:33;10.53;;;3.10;;
4961;SDS011;2496;52.468;13.342;2024-03-23T07:16:58;6.60;;;2.60;;
4961;SDS011;2496;52.468;13.342;2024-03-23T07:19:25;9.93;;;3.17;;
4961;SDS011;2496;52.468;13.342;2024-03-23T07:21:52;8.30;;;3.23;;
4961;SDS011;2496;52.468;13.342;2024-03-23T07:24:18;11.00;;;3.30;;
4961;SDS011;2496;52.468;13.342;2024-03-23T07:26:44;8.27;;;2.97;;
4961;SDS011;2496;52.468;13.342;2024-03-23T07:29:12;8.40;;;2.50;;
4961;SDS011;2496;52.468;13.342;2024-03-23T07:31:39;6.57;;;2.53;;
4961;SDS011;2496;52.468;13.342;2024-03-23T07:34:06;13.33;;;3.07;;
4961;SDS011;2496;52.468;13.342;2024-03-23T07:36:32;7.97;;;2.10;;
4961;SDS011;2496;52.468;13.342;2024-03-23T07:38:59;9.50;;;2.80;;
4961;SDS011;2496;52.468;13.342;2024-03-23T07:41:25;16.50;;;3.07;;
4961;SDS011;2496;52.468;13.342;2024-03-23T07:43:53;12.73;;;3.30;;
4961;SDS011;2496;52.468;13.342;2024-03-23T07:46:20;12.83;;;3.60;;
4961;SDS011;2496;52.468;13.342;2024-03-23T07:48:48;16.50;;;3.47;;
4961;SDS011;2496;52.468;13.342;2024-03-23T07:51:16;10.97;;;3.20;;
4961;SDS011;2496;52.468;13.342;2024-03-23T07:53:44;9.40;;;3.10;;
4961;SDS011;2496;52.468;13.342;2024-03-23T07:56:11;17.13;;;3.90;;
4961;SDS011;2496;52.468;13.342;2024-03-23T07:58:40;10.93;;;4.10;;
4961;SDS011;2496;52.468;13.342;2024-03-23T08:01:07;8.27;;;3.00;;
4961;SDS011;2496;52.468;13.342;2024-03-23T08:03:34;9.27;;;3.20;;
4961;SDS011;2496;52.468;13.342;2024-03-23T08:06:09;7.13;;;3.20;;
4961;SDS011;2496;52.468;13.342;2024-03-23T08:08:37;12.57;;;3.30;;
4961;SDS011;2496;52.468;13.342;2024-03-23T08:11:03;6.20;;;2.70;;
4961;SDS011;2496;52.468;13.342;2024-03-23T08:13:30;8.40;;;3.87;;
4961;SDS011;2496;52.468;13.342;2024-03-23T08:15:57;19.73;;;4.83;;
4961;SDS011;2496;52.468;13.342;2024-03-23T08:18:24;16.47;;;5.00;;
4961;SDS011;2496;52.468;13.342;2024-03-23T08:20:57;9.67;;;4.43;;
4961;SDS011;2496;52.468;13.342;2024-03-23T08:23:25;8.33;;;3.60;;
4961;SDS011;2496;52.468;13.342;2024-03-23T08:25:52;5.90;;;3.10;;
4961;SDS011;2496;52.468;13.342;2024-03-23T08:28:24;16.97;;;3.97;;
4961;SDS011;2496;52.468;13.342;2024-03-23T08:30:50;6.70;;;2.00;;
4961;SDS011;2496;52.468;13.342;2024-03-23T08:33:17;6.70;;;2.50;;
4961;SDS011;2496;52.468;13.342;2024-03-23T08:35:43;8.83;;;3.00;;
4961;SDS011;2496;52.468;13.342;2024-03-23T08:38:20;14.83;;;3.03;;
4961;SDS011;2496;52.468;13.342;2024-03-23T08:40:47;5.60;;;2.70;;
4961;SDS011;2496;52.468;13.342;2024-03-23T08:43:14;10.07;;;4.07;;
4961;SDS011;2496;52.468;13.342;2024-03-23T08:45:40;7.47;;;3.03;;
4961;SDS011;2496;52.468;13.342;2024-03-23T08:48:07;5.33;;;3.27;;
4961;SDS011;2496;52.468;13.342;2024-03-23T08:50:34;7.80;;;3.60;;
4961;SDS011;2496;52.468;13.342;2024-03-23T08:53:01;8.60;;;3.37;;
4961;SDS011;2496;52.468;13.342;2024-03-23T08:55:27;14.77;;;3.87;;
4961;SDS011;2496;52.468;13.342;2024-03-23T08:57:55;10.87;;;3.10;;
4961;SDS011;2496;52.468;13.342;2024-03-23T09:00:21;9.80;;;2.53;;
4961;SDS011;2496;52.468;13.342;2024-03-23T09:02:48;4.70;;;2.43;;
4961;SDS011;2496;52.468;13.342;2024-03-23T09:05:14;11.60;;;2.80;;
4961;SDS011;2496;52.468;13.342;2024-03-23T09:07:41;6.67;;;3.37;;
4961;SDS011;2496;52.468;13.342;2024-03-23T09:10:07;9.40;;;2.97;;
4961;SDS011;2496;52.468;13.342;2024-03-23T09:12:34;8.20;;;2.87;;
4961;SDS011;2496;52.468;13.342;2024-03-23T09:15:02;3.77;;;2.27;;
4961;SDS011;2496;52.468;13.342;2024-03-23T09:17:29;9.07;;;3.00;;
4961;SDS011;2496;52.468;13.342;2024-03-23T09:19:55;5.53;;;2.00;;
4961;SDS011;2496;52.468;13.342;2024-03-23T09:22:22;6.80;;;2.07;;
4961;SDS011;2496;52.468;13.342;2024-03-23T09:24:48;4.87;;;2.13;;
4961;SDS011;2496;52.468;13.342;2024-03-23T09:27:15;5.63;;;2.40;;
4961;SDS011;2496;52.468;13.342;2024-03-23T09:29:41;7.97;;;2.07;;
4961;SDS011;2496;52.468;13.342;2024-03-23T09:32:10;5.67;;;2.30;;
4961;SDS011;2496;52.468;13.342;2024-03-23T09:34:36;7.37;;;3.20;;
4961;SDS011;2496;52.468;13.342;2024-03-23T09:37:03;3.67;;;2.03;;
4961;SDS011;2496;52.468;13.342;2024-03-23T09:39:29;6.50;;;2.80;;
4961;SDS011;2496;52.468;13.342;2024-03-23T09:41:57;4.60;;;2.33;;
4961;SDS011;2496;52.468;13.342;2024-03-23T09:44:24;9.30;;;3.30;;
4961;SDS011;2496;52.468;13.342;2024-03-23T09:46:54;5.43;;;2.37;;
4961;SDS011;2496;52.468;13.342;2024-03-23T09:49:22;7.23;;;2.20;;
4961;SDS011;2496;52.468;13.342;2024-03-23T09:51:50;10.37;;;3.00;;
4961;SDS011;2496;52.468;13.342;2024-03-23T09:54:16;13.50;;;2.53;;
4961;SDS011;2496;52.468;13.342;2024-03-23T09:56:43;9.70;;;3.43;;
4961;SDS011;2496;52.468;13.342;2024-03-23T09:59:09;7.00;;;3.63;;
4961;SDS011;2496;52.468;13.342;2024-03-23T10:01:36;9.20;;;2.60;;
4961;SDS011;2496;52.468;13.342;2024-03-23T10:04:02;8.20;;;2.43;;
4961;SDS011;2496;52.468;13.342;2024-03-23T10:06:31;6.20;;;2.77;;
4961;SDS011;2496;52.468;13.342;2024-03-23T10:08:57;7.57;;;2.77;;
4961;SDS011;2496;52.468;13.342;2024-03-23T10:11:24;9.83;;;3.83;;
4961;SDS011;2496;52.468;13.342;2024-03-23T10:13:52;13.47;;;4.97;;
4961;SDS011;2496;52.468;13.342;2024-03-23T10:16:22;11.00;;;3.40;;
4961;SDS011;2496;52.468;13.342;2024-03-23T10:18:49;5.53;;;3.40;;
4961;SDS011;2496;52.468;13.342;2024-03-23T10:21:16;9.37;;;4.57;;
4961;SDS011;2496;52.468;13.342;2024-03-23T10:23:44;7.43;;;3.00;;
4961;SDS011;2496;52.468;13.342;2024-03-23T10:26:16;7.07;;;2.53;;
4961;SDS011;2496;52.468;13.342;2024-03-23T10:28:53;9.03;;;2.50;;
4961;SDS011;2496;52.468;13.342;2024-03-23T10:31:22;15.27;;;4.33;;
4961;SDS011;2496;52.468;13.342;2024-03-23T10:33:48;8.57;;;2.73;;
4961;SDS011;2496;52.468;13.342;2024-03-23T10:36:15;14.50;;;3.80;;
4961;SDS011;2496;52.468;13.342;2024-03-23T10:38:44;10.80;;;4.40;;
4961;SDS011;2496;52.468;13.342;2024-03-23T10:41:14;9.03;;;3.13;;
4961;SDS011;2496;52.468;13.342;2024-03-23T10:43:39;8.90;;;2.53;;
4961;SDS011;2496;52.468;13.342;2024-03-23T10:46:07;7.20;;;2.90;;
4961;SDS011;2496;52.468;13.342;2024-03-23T10:48:34;12.37;;;3.00;;
4961;SDS011;2496;52.468;13.342;2024-03-23T10:51:01;13.07;;;2.77;;
4961;SDS011;2496;52.468;13.342;2024-03-23T10:53:27;11.90;;;3.27;;
4961;SDS011;2496;52.468;13.342;2024-03-23T10:55:57;8.37;;;2.13;;
4961;SDS011;2496;52.468;13.342;2024-03-23T10:58:27;9.17;;;2.80;;
4961;SDS011;2496;52.468;13.342;2024-03-23T11:00:57;5.37;;;2.43;;
4961;SDS011;2496;52.468;13.342;2024-03-23T11:03:30;6.30;;;3.17;;
4961;SDS011;2496;52.468;13.342;2024-03-23T11:05:58;8.33;;;3.40;;
4961;SDS011;2496;52.468;13.342;2024-03-23T11:08:35;21.90;;;3.63;;
4961;SDS011;2496;52.468;13.342;2024-03-23T11:11:13;12.03;;;3.70;;
4961;SDS011;2496;52.468;13.342;2024-03-23T11:13:42;6.50;;;2.40;;
4961;SDS011;2496;52.468;13.342;2024-03-23T11:16:15;9.30;;;2.67;;
4961;SDS011;2496;52.468;13.342;2024-03-23T11:18:42;8.93;;;2.50;;
4961;SDS011;2496;52.468;13.342;2024-03-23T11:21:09;12.60;;;2.90;;
4961;SDS011;2496;52.468;13.342;2024-03-23T11:26:42;4.73;;;2.27;;
4961;SDS011;2496;52.468;13.342;2024-03-23T11:29:11;7.40;;;2.60;;
4961;SDS011;2496;52.468;13.342;2024-03-23T11:31:39;13.60;;;2.80;;
4961;SDS011;2496;52.468;13.342;2024-03-23T11:34:12;7.70;;;2.50;;
4961;SDS011;2496;52.468;13.342;2024-03-23T11:36:40;8.60;;;2.47;;
4961;SDS011;2496;52.468;13.342;2024-03-23T11:39:13;5.90;;;2.60;;
4961;SDS011;2496;52.468;13.342;2024-03-23T11:41:48;4.63;;;1.87;;
4961;SDS011;2496;52.468;13.342;2024-03-23T11:44:19;5.60;;;2.67;;
4961;SDS011;2496;52.468;13.342;2024-03-23T11:46:47;9.60;;;3.00;;
4961;SDS011;2496;52.468;13.342;2024-03-23T11:49:21;6.13;;;2.40;;
4961;SDS011;2496;52.468;13.342;2024-03-23T11:51:48;13.70;;;4.13;;
4961;SDS011;2496;52.468;13.342;2024-03-23T11:54:15;6.67;;;2.63;;
4961;SDS011;2496;52.468;13.342;2024-03-23T11:56:54;10.23;;;2.77;;
4961;SDS011;2496;52.468;13.342;2024-03-23T11:59:32;8.13;;;3.17;;
4961;SDS011;2496;52.468;13.342;2024-03-23T12:01:58;9.50;;;2.90;;
4961;SDS011;2496;52.468;13.342;2024-03-23T12:04:26;5.67;;;2.53;;
4961;SDS011;2496;52.468;13.342;2024-03-23T12:09:41;11.23;;;3.27;;
4961;SDS011;2496;52.468;13.342;2024-03-23T12:12:10;5.13;;;3.27;;
4961;SDS011;2496;52.468;13.342;2024-03-23T12:14:41;7.80;;;2.40;;
4961;SDS011;2496;52.468;13.342;2024-03-23T12:17:08;7.20;;;3.00;;
4961;SDS011;2496;52.468;13.342;2024-03-23T12:19:36;11.90;;;3.40;;
4961;SDS011;2496;52.468;13.342;2024-03-23T12:22:02;8.50;;;2.67;;
4961;SDS011;2496;52.468;13.342;2024-03-23T12:24:30;7.10;;;2.63;;
4961;SDS011;2496;52.468;13.342;2024-03-23T12:26:59;10.80;;;2.70;;
4961;SDS011;2496;52.468;13.342;2024-03-23T12:29:29;5.00;;;2.93;;
4961;SDS011;2496;52.468;13.342;2024-03-23T12:31:58;9.97;;;3.10;;
4961;SDS011;2496;52.468;13.342;2024-03-23T12:34:26;9.13;;;3.43;;
4961;SDS011;2496;52.468;13.342;2024-03-23T12:36:53;6.10;;;2.33;;
4961;SDS011;2496;52.468;13.342;2024-03-23T12:39:20;9.20;;;3.10;;
4961;SDS011;2496;52.468;13.342;2024-03-23T12:41:46;9.33;;;2.90;;
4961;SDS011;2496;52.468;13.342;2024-03-23T12:44:13;8.27;;;2.20;;
4961;SDS011;2496;52.468;13.342;2024-03-23T12:46:41;5.43;;;1.40;;
4961;SDS011;2496;52.468;13.342;2024-03-23T12:49:08;6.93;;;1.80;;
4961;SDS011;2496;52.468;13.342;2024-03-23T12:51:35;9.03;;;1.50;;
4961;SDS011;2496;52.468;13.342;2024-03-23T12:54:02;5.63;;;1.60;;
4961;SDS011;2496;52.468;13.342;2024-03-23T12:56:28;5.57;;;2.30;;
4961;SDS011;2496;52.468;13.342;2024-03-23T12:58:55;5.57;;;2.10;;
4961;SDS011;2496;52.468;13.342;2024-03-23T13:01:22;9.47;;;2.13;;
4961;SDS011;2496;52.468;13.342;2024-03-23T13:03:51;5.80;;;2.00;;
4961;SDS011;2496;52.468;13.342;2024-03-23T13:06:17;6.37;;;1.87;;
4961;SDS011;2496;52.468;13.342;2024-03-23T13:08:45;9.73;;;2.40;;
4961;SDS011;2496;52.468;13.342;2024-03-23T13:11:11;12.27;;;2.53;;
4961;SDS011;2496;52.468;13.342;2024-03-23T13:13:39;19.60;;;2.53;;
4961;SDS011;2496;52.468;13.342;2024-03-23T13:16:05;5.37;;;2.27;;
4961;SDS011;2496;52.468;13.342;2024-03-23T13:18:32;20.40;;;3.90;;
4961;SDS011;2496;52.468;13.342;2024-03-23T13:20:59;7.43;;;2.80;;
4961;SDS011;2496;52.468;13.342;2024-03-23T13:23:27;4.00;;;2.27;;
4961;SDS011;2496;52.468;13.342;2024-03-23T13:25:54;6.83;;;2.23;;
4961;SDS011;2496;52.468;13.342;2024-03-23T13:28:22;12.77;;;2.40;;
4961;SDS011;2496;52.468;13.342;2024-03-23T13:30:51;4.40;;;2.13;;
4961;SDS011;2496;52.468;13.342;2024-03-23T13:33:18;5.23;;;2.60;;
4961;SDS011;2496;52.468;13.342;2024-03-23T13:35:50;15.27;;;3.33;;
4961;SDS011;2496;52.468;13.342;2024-03-23T13:38:19;10.60;;;3.50;;
4961;SDS011;2496;52.468;13.342;2024-03-23T13:40:49;7.57;;;3.07;;
4961;SDS011;2496;52.468;13.342;2024-03-23T13:43:19;9.13;;;3.30;;
4961;SDS011;2496;52.468;13.342;2024-03-23T13:45:46;11.23;;;3.17;;
4961;SDS011;2496;52.468;13.342;2024-03-23T13:48:13;6.23;;;3.30;;
4961;SDS011;2496;52.468;13.342;2024-03-23T13:50:40;9.40;;;2.87;;
4961;SDS011;2496;52.468;13.342;2024-03-23T13:53:07;5.53;;;2.73;;
4961;SDS011;2496;52.468;13.342;2024-03-23T13:55:35;7.60;;;3.10;;
4961;SDS011;2496;52.468;13.342;2024-03-23T13:58:02;12.00;;;2.90;;
4961;SDS011;2496;52.468;13.342;2024-03-23T14:00:29;7.33;;;3.03;;
4961;SDS011;2496;52.468;13.342;2024-03-23T14:02:57;13.73;;;3.90;;
4961;SDS011;2496;52.468;13.342;2024-03-23T14:05:23;9.80;;;3.67;;
4961;SDS011;2496;52.468;13.342;2024-03-23T14:07:50;5.20;;;3.10;;
4961;SDS011;2496;52.468;13.342;2024-03-23T14:10:16;10.13;;;4.10;;
4961;SDS011;2496;52.468;13.342;2024-03-23T14:12:44;10.60;;;3.47;;
4961;SDS011;2496;52.468;13.342;2024-03-23T14:15:10;9.87;;;3.50;;
4961;SDS011;2496;52.468;13.342;2024-03-23T14:17:37;9.97;;;3.37;;
4961;SDS011;2496;52.468;13.342;2024-03-23T14:20:04;16.30;;;4.00;;
4961;SDS011;2496;52.468;13.342;2024-03-23T14:22:34;11.57;;;3.40;;
4961;SDS011;2496;52.468;13.342;2024-03-23T14:25:00;10.40;;;3.53;;
4961;SDS011;2496;52.468;13.342;2024-03-23T14:27:27;11.47;;;3.50;;
4961;SDS011;2496;52.468;13.342;2024-03-23T14:29:54;7.03;;;3.00;;
4961;SDS011;2496;52.468;13.342;2024-03-23T14:32:21;6.60;;;3.63;;
4961;SDS011;2496;52.468;13.342;2024-03-23T14:34:47;19.50;;;4.13;;
4961;SDS011;2496;52.468;13.342;2024-03-23T14:37:14;10.50;;;3.10;;
4961;SDS011;2496;52.468;13.342;2024-03-23T14:39:41;11.07;;;3.23;;
4961;SDS011;2496;52.468;13.342;2024-03-23T14:42:09;12.27;;;4.43;;
4961;SDS011;2496;52.468;13.342;2024-03-23T14:44:35;13.70;;;3.90;;
4961;SDS011;2496;52.468;13.342;2024-03-23T14:47:05;6.60;;;3.37;;
4961;SDS011;2496;52.468;13.342;2024-03-23T14:49:31;8.50;;;3.30;;
4961;SDS011;2496;52.468;13.342;2024-03-23T14:51:58;17.10;;;4.20;;
4961;SDS011;2496;52.468;13.342;2024-03-23T14:54:24;3.60;;;2.70;;
4961;SDS011;2496;52.468;13.342;2024-03-23T14:56:51;7.70;;;3.70;;
4961;SDS011;2496;52.468;13.342;2024-03-23T14:59:17;8.37;;;3.50;;
4961;SDS011;2496;52.468;13.342;2024-03-23T15:01:44;6.23;;;2.77;;
4961;SDS011;2496;52.468;13.342;2024-03-23T15:04:12;5.97;;;2.70;;
4961;SDS011;2496;52.468;13.342;2024-03-23T15:06:39;10.73;;;4.10;;
4961;SDS011;2496;52.468;13.342;2024-03-23T15:09:05;10.57;;;3.00;;
4961;SDS011;2496;52.468;13.342;2024-03-23T15:11:36;6.27;;;2.80;;
4961;SDS011;2496;52.468;13.342;2024-03-23T15:14:02;7.53;;;2.30;;
4961;SDS011;2496;52.468;13.342;2024-03-23T15:16:29;7.00;;;2.07;;
4961;SDS011;2496;52.468;13.342;2024-03-23T15:18:55;5.63;;;2.43;;
4961;SDS011;2496;52.468;13.342;2024-03-23T15:21:23;4.97;;;2.07;;
4961;SDS011;2496;52.468;13.342;2024-03-23T15:23:49;3.40;;;2.40;;
4961;SDS011;2496;52.468;13.342;2024-03-23T15:26:16;11.83;;;2.80;;
4961;SDS011;2496;52.468;13.342;2024-03-23T15:28:42;3.70;;;2.37;;
4961;SDS011;2496;52.468;13.342;2024-03-23T15:31:33;3.20;;;2.27;;
4961;SDS011;2496;52.468;13.342;2024-03-23T15:34:04;6.70;;;3.00;;
4961;SDS011;2496;52.468;13.342;2024-03-23T15:36:36;6.37;;;2.53;;
4961;SDS011;2496;52.468;13.342;2024-03-23T15:39:03;5.30;;;2.20;;
4961;SDS011;2496;52.468;13.342;2024-03-23T15:41:31;3.70;;;2.10;;
4961;SDS011;2496;52.468;13.342;2024-03-23T15:43:59;5.97;;;2.40;;
4961;SDS011;2496;52.468;13.342;2024-03-23T15:46:26;4.77;;;2.00;;
4961;SDS011;2496;52.468;13.342;2024-03-23T15:48:52;7.07;;;2.67;;
4961;SDS011;2496;52.468;13.342;2024-03-23T15:51:19;6.47;;;2.67;;
4961;SDS011;2496;52.468;13.342;2024-03-23T15:53:47;6.00;;;2.20;;
4961;SDS011;2496;52.468;13.342;2024-03-23T15:56:17;3.70;;;2.50;;
4961;SDS011;2496;52.468;13.342;2024-03-23T15:58:43;10.00;;;3.60;;